sensor_id;sensor_type;location;lat;lon;timestamp;pressure;altitude;pressure_sealevel;temperature;humidity
49945;BME280;35838;49.134;9.212;2023-04-25T01:57:07;99250.09;;;9.54;100.00
49945;BME280;35838;49.134;9.212;2023-04-25T01:58:40;99250.03;;;9.60;100.00
49945;BME280;35838;49.134;9.212;2023-04-25T02:00:12;99250.91;;;9.59;100.00
49945;BME280;35838;49.134;9.212;2023-04-25T02:01:46;99247.50;;;9.52;100.00
49945;BME280;35838;49.134;9.212;2023-04-25T02:03:19;99246.94;;;9.22;100.00
49945;BME280;35838;49.134;9.212;2023-04-25T02:04:53;99244.28;;;9.32;100.00
49945;BME280;35838;49.134;9.212;2023-04-25T02:06:26;99245.16;;;9.29;100.00
49945;BME280;35838;49.134;9.212;2023-04-25T02:08:01;99248.53;;;9.37;100.00
49945;BME280;35838;49.134;9.212;2023-04-25T02:09:35;99249.53;;;9.22;100.00
49945;BME280;35838;49.134;9.212;2023-04-25T02:11:08;99244.28;;;9.29;100.00
49945;BME280;35838;49.134;9.212;2023-04-25T02:12:42;99252.03;;;9.32;100.00
49945;BME280;35838;49.134;9.212;2023-04-25T02:14:15;99250.44;;;9.14;100.00
49945;BME280;35838;49.134;9.212;2023-04-25T02:15:46;99252.97;;;9.23;100.00
49945;BME280;35838;49.134;9.212;2023-04-25T02:17:20;99245.31;;;9.11;100.00
49945;BME280;35838;49.134;9.212;2023-04-25T02:18:54;99244.41;;;9.15;100.00
49945;BME280;35838;49.134;9.212;2023-04-25T02:20:28;99240.09;;;9.14;100.00
49945;BME280;35838;49.134;9.212;2023-04-25T02:22:02;99244.28;;;9.29;100.00
49945;BME280;35838;49.134;9.212;2023-04-25T02:23:33;99241.63;;;9.36;100.00
49945;BME280;35838;49.134;9.212;2023-04-25T02:25:07;99240.72;;;9.42;100.00
49945;BME280;35838;49.134;9.212;2023-04-25T02:26:40;99232.84;;;9.50;100.00
49945;BME280;35838;49.134;9.212;2023-04-25T02:28:14;99241.59;;;9.39;100.00
49945;BME280;35838;49.134;9.212;2023-04-25T02:29:48;99241.47;;;9.52;100.00
49945;BME280;35838;49.134;9.212;2023-04-25T02:31:21;99239.94;;;9.34;100.00
49945;BME280;35838;49.134;9.212;2023-04-25T02:32:55;99239.00;;;9.41;100.00
49945;BME280;35838;49.134;9.212;2023-04-25T02:34:28;99239.03;;;9.38;100.00
49945;BME280;35838;49.134;9.212;2023-04-25T02:36:02;99237.31;;;9.35;100.00
49945;BME280;35838;49.134;9.212;2023-04-25T02:37:37;99240.81;;;9.30;100.00
49945;BME280;35838;49.134;9.212;2023-04-25T02:39:10;99242.50;;;9.35;100.00
49945;BME280;35838;49.134;9.212;2023-04-25T02:40:44;99237.41;;;9.29;100.00
49945;BME280;35838;49.134;9.212;2023-04-25T02:42:18;99236.63;;;9.18;100.00
49945;BME280;35838;49.134;9.212;2023-04-25T02:43:54;99237.47;;;9.20;100.00
49945;BME280;35838;49.134;9.212;2023-04-25T02:45:27;99240.94;;;9.17;100.00
49945;BME280;35838;49.134;9.212;2023-04-25T02:47:01;99229.03;;;8.99;100.00
49945;BME280;35838;49.134;9.212;2023-04-25T02:48:34;99237.66;;;8.98;100.00
49945;BME280;35838;49.134;9.212;2023-04-25T02:50:06;99231.63;;;8.98;100.00
49945;BME280;35838;49.134;9.212;2023-04-25T02:51:40;99240.19;;;9.04;100.00
49945;BME280;35838;49.134;9.212;2023-04-25T02:53:11;99234.06;;;9.15;100.00
49945;BME280;35838;49.134;9.212;2023-04-25T02:54:44;99235.72;;;9.20;100.00
49945;BME280;35838;49.134;9.212;2023-04-25T02:56:18;99236.47;;;9.33;100.00
49945;BME280;35838;49.134;9.212;2023-04-25T02:57:49;99233.78;;;9.46;100.00
49945;BME280;35838;49.134;9.212;2023-04-25T02:59:25;99236.28;;;9.53;100.00
49945;BME280;35838;49.134;9.212;2023-04-25T03:00:59;99223.31;;;9.55;100.00
49945;BME280;35838;49.134;9.212;2023-04-25T03:02:32;99220.63;;;9.63;100.00
49945;BME280;35838;49.134;9.212;2023-04-25T03:04:06;99228.41;;;9.63;100.00
49945;BME280;35838;49.134;9.212;2023-04-25T03:05:39;99220.63;;;9.64;100.00
49945;BME280;35838;49.134;9.212;2023-04-25T03:07:13;99224.94;;;9.64;100.00
49945;BME280;35838;49.134;9.212;2023-04-25T03:08:47;99219.09;;;9.45;100.00
49945;BME280;35838;49.134;9.212;2023-04-25T03:10:20;99218.97;;;9.57;100.00
49945;BME280;35838;49.134;9.212;2023-04-25T03:11:51;99225.03;;;9.56;100.00
49945;BME280;35838;49.134;9.212;2023-04-25T03:13:25;99218.13;;;9.56;100.00
49945;BME280;35838;49.134;9.212;2023-04-25T03:15:03;99220.88;;;9.39;100.00
49945;BME280;35838;49.134;9.212;2023-04-25T03:16:37;99229.53;;;9.38;100.00
49945;BME280;35838;49.134;9.212;2023-04-25T03:18:10;99222.75;;;9.22;100.00
49945;BME280;35838;49.134;9.212;2023-04-25T03:19:44;99225.41;;;9.17;100.00
49945;BME280;35838;49.134;9.212;2023-04-25T03:21:17;99217.53;;;9.30;100.00
49945;BME280;35838;49.134;9.212;2023-04-25T03:22:51;99216.72;;;9.23;100.00
49945;BME280;35838;49.134;9.212;2023-04-25T03:24:24;99216.00;;;9.05;100.00
49945;BME280;35838;49.134;9.212;2023-04-25T03:25:56;99228.00;;;9.19;100.00
49945;BME280;35838;49.134;9.212;2023-04-25T03:27:30;99221.00;;;9.27;100.00
49945;BME280;35838;49.134;9.212;2023-04-25T03:29:04;99224.38;;;9.35;100.00
49945;BME280;35838;49.134;9.212;2023-04-25T03:30:40;99229.56;;;9.35;100.00
49945;BME280;35838;49.134;9.212;2023-04-25T03:32:14;99226.06;;;9.38;100.00
49945;BME280;35838;49.134;9.212;2023-04-25T03:33:45;99232.16;;;9.34;100.00
49945;BME280;35838;49.134;9.212;2023-04-25T03:35:19;99225.53;;;9.05;100.00
49945;BME280;35838;49.134;9.212;2023-04-25T03:36:54;99222.19;;;8.89;100.00
49945;BME280;35838;49.134;9.212;2023-04-25T03:38:27;99229.88;;;9.01;100.00
49945;BME280;35838;49.134;9.212;2023-04-25T03:40:01;99228.09;;;9.06;100.00
49945;BME280;35838;49.134;9.212;2023-04-25T03:41:35;99229.72;;;9.17;100.00
49945;BME280;35838;49.134;9.212;2023-04-25T03:43:09;99224.56;;;9.17;100.00
49945;BME280;35838;49.134;9.212;2023-04-25T03:44:42;99228.06;;;9.09;100.00
49945;BME280;35838;49.134;9.212;2023-04-25T03:46:18;99233.16;;;9.19;100.00
49945;BME280;35838;49.134;9.212;2023-04-25T03:47:52;99234.81;;;9.26;100.00
49945;BME280;35838;49.134;9.212;2023-04-25T03:49:24;99227.97;;;9.17;100.00
49945;BME280;35838;49.134;9.212;2023-04-25T03:50:57;99228.31;;;8.80;100.00
49945;BME280;35838;49.134;9.212;2023-04-25T03:52:28;99228.28;;;8.85;100.00
49945;BME280;35838;49.134;9.212;2023-04-25T03:54:02;99231.69;;;8.90;100.00
49945;BME280;35838;49.134;9.212;2023-04-25T03:55:36;99234.34;;;8.79;100.00
49945;BME280;35838;49.134;9.212;2023-04-25T03:57:09;99246.53;;;8.63;100.00
49945;BME280;35838;49.134;9.212;2023-04-25T03:58:43;99244.88;;;8.56;100.00
49945;BME280;35838;49.134;9.212;2023-04-25T04:00:17;99243.19;;;8.49;100.00
49945;BME280;35838;49.134;9.212;2023-04-25T04:01:53;99247.50;;;8.40;100.00
49945;BME280;35838;49.134;9.212;2023-04-25T04:03:27;99246.69;;;8.37;100.00
49945;BME280;35838;49.134;9.212;2023-04-25T04:05:00;99246.66;;;8.38;100.00
49945;BME280;35838;49.134;9.212;2023-04-25T04:06:34;99254.34;;;8.51;100.00
49945;BME280;35838;49.134;9.212;2023-04-25T04:08:08;99251.81;;;8.43;100.00
49945;BME280;35838;49.134;9.212;2023-04-25T04:09:42;99255.34;;;8.25;100.00
49945;BME280;35838;49.134;9.212;2023-04-25T04:11:15;99256.16;;;8.33;100.00
49945;BME280;35838;49.134;9.212;2023-04-25T04:12:49;99261.28;;;8.42;100.00
49945;BME280;35838;49.134;9.212;2023-04-25T04:14:22;99263.84;;;8.42;100.00
49945;BME280;35838;49.134;9.212;2023-04-25T04:15:56;99260.41;;;8.45;100.00
49945;BME280;35838;49.134;9.212;2023-04-25T04:17:33;99268.25;;;8.31;100.00
49945;BME280;35838;49.134;9.212;2023-04-25T04:19:06;99267.44;;;8.18;100.00
49945;BME280;35838;49.134;9.212;2023-04-25T04:20:40;99264.84;;;8.23;100.00
49945;BME280;35838;49.134;9.212;2023-04-25T04:22:13;99278.59;;;8.25;100.00
49945;BME280;35838;49.134;9.212;2023-04-25T04:23:47;99278.59;;;8.28;100.00
49945;BME280;35838;49.134;9.212;2023-04-25T04:25:18;99276.03;;;8.23;100.00
49945;BME280;35838;49.134;9.212;2023-04-25T04:26:52;99274.31;;;8.22;100.00
49945;BME280;35838;49.134;9.212;2023-04-25T04:28:26;99279.47;;;8.27;100.00
49945;BME280;35838;49.134;9.212;2023-04-25T04:30:00;99278.63;;;8.22;100.00
49945;BME280;35838;49.134;9.212;2023-04-25T04:31:32;99285.53;;;8.15;100.00
49945;BME280;35838;49.134;9.212;2023-04-25T04:33:09;99291.63;;;8.11;100.00
49945;BME280;35838;49.134;9.212;2023-04-25T04:34:42;99280.41;;;8.07;100.00
49945;BME280;35838;49.134;9.212;2023-04-25T04:36:17;99287.25;;;8.24;100.00
49945;BME280;35838;49.134;9.212;2023-04-25T04:37:53;99295.03;;;8.19;100.00
49945;BME280;35838;49.134;9.212;2023-04-25T04:39:27;99295.91;;;8.10;100.00
49945;BME280;35838;49.134;9.212;2023-04-25T04:40:58;99299.34;;;8.09;100.00
49945;BME280;35838;49.134;9.212;2023-04-25T04:42:32;99298.50;;;8.06;100.00
49945;BME280;35838;49.134;9.212;2023-04-25T04:44:06;99308.00;;;8.05;100.00
49945;BME280;35838;49.134;9.212;2023-04-25T04:45:41;99300.28;;;7.93;100.00
49945;BME280;35838;49.134;9.212;2023-04-25T04:47:15;99302.84;;;7.94;100.00
49945;BME280;35838;49.134;9.212;2023-04-25T04:48:48;99299.38;;;8.00;100.00
49945;BME280;35838;49.134;9.212;2023-04-25T04:50:23;99300.19;;;8.19;100.00
49945;BME280;35838;49.134;9.212;2023-04-25T04:51:57;99300.22;;;8.10;100.00
49945;BME280;35838;49.134;9.212;2023-04-25T04:53:31;99306.28;;;8.01;100.00
49945;BME280;35838;49.134;9.212;2023-04-25T04:55:05;99308.84;;;8.06;100.00
49945;BME280;35838;49.134;9.212;2023-04-25T04:56:39;99308.81;;;8.10;100.00
49945;BME280;35838;49.134;9.212;2023-04-25T04:58:12;99314.84;;;8.09;100.00
49945;BME280;35838;49.134;9.212;2023-04-25T04:59:46;99311.41;;;8.13;100.00
49945;BME280;35838;49.134;9.212;2023-04-25T05:01:21;99313.97;;;8.12;100.00
49945;BME280;35838;49.134;9.212;2023-04-25T05:02:54;99315.75;;;7.99;100.00
49945;BME280;35838;49.134;9.212;2023-04-25T05:04:30;99319.19;;;8.06;100.00
49945;BME280;35838;49.134;9.212;2023-04-25T05:06:04;99318.34;;;8.05;100.00
49945;BME280;35838;49.134;9.212;2023-04-25T05:07:39;99325.25;;;7.91;100.00
49945;BME280;35838;49.134;9.212;2023-04-25T05:09:13;99332.09;;;7.98;100.00
49945;BME280;35838;49.134;9.212;2023-04-25T05:10:46;99334.72;;;7.95;100.00
49945;BME280;35838;49.134;9.212;2023-04-25T05:12:20;99326.09;;;7.90;100.00
49945;BME280;35838;49.134;9.212;2023-04-25T05:13:51;99333.00;;;7.91;100.00
49945;BME280;35838;49.134;9.212;2023-04-25T05:15:25;99329.56;;;7.92;100.00
49945;BME280;35838;49.134;9.212;2023-04-25T05:16:58;99323.53;;;7.90;100.00
49945;BME280;35838;49.134;9.212;2023-04-25T05:18:35;99331.25;;;7.97;100.00
49945;BME280;35838;49.134;9.212;2023-04-25T05:20:11;99323.47;;;8.14;100.00
49945;BME280;35838;49.134;9.212;2023-04-25T05:21:45;99331.19;;;8.24;100.00
49945;BME280;35838;49.134;9.212;2023-04-25T05:23:19;99324.31;;;8.12;100.00
49945;BME280;35838;49.134;9.212;2023-04-25T05:24:53;99336.38;;;8.21;100.00
49945;BME280;35838;49.134;9.212;2023-04-25T05:26:26;99337.22;;;8.23;100.00
49945;BME280;35838;49.134;9.212;2023-04-25T05:28:01;99332.09;;;8.13;100.00
49945;BME280;35838;49.134;9.212;2023-04-25T05:29:35;99332.97;;;8.11;100.00
49945;BME280;35838;49.134;9.212;2023-04-25T05:31:09;99326.09;;;8.00;100.00
49945;BME280;35838;49.134;9.212;2023-04-25T05:32:43;99335.56;;;8.03;100.00
49945;BME280;35838;49.134;9.212;2023-04-25T05:34:17;99327.81;;;8.06;100.00
49945;BME280;35838;49.134;9.212;2023-04-25T05:35:53;99330.31;;;8.23;100.00
49945;BME280;35838;49.134;9.212;2023-04-25T05:37:27;99330.31;;;8.20;100.00
49945;BME280;35838;49.134;9.212;2023-04-25T05:39:01;99332.91;;;8.19;100.00
49945;BME280;35838;49.134;9.212;2023-04-25T05:40:35;99336.38;;;8.18;100.00
49945;BME280;35838;49.134;9.212;2023-04-25T05:42:08;99333.75;;;8.22;100.00
49945;BME280;35838;49.134;9.212;2023-04-25T05:43:42;99335.50;;;8.15;100.00
49945;BME280;35838;49.134;9.212;2023-04-25T05:45:17;99338.94;;;8.18;100.00
49945;BME280;35838;49.134;9.212;2023-04-25T05:46:51;99345.88;;;8.12;100.00
49945;BME280;35838;49.134;9.212;2023-04-25T05:48:24;99342.44;;;8.10;100.00
49945;BME280;35838;49.134;9.212;2023-04-25T05:49:58;99337.25;;;8.10;100.00
49945;BME280;35838;49.134;9.212;2023-04-25T05:51:34;99339.81;;;8.20;100.00
49945;BME280;35838;49.134;9.212;2023-04-25T05:53:08;99345.00;;;8.12;100.00
49945;BME280;35838;49.134;9.212;2023-04-25T05:54:42;99345.00;;;8.12;100.00
49945;BME280;35838;49.134;9.212;2023-04-25T05:56:15;99340.72;;;8.12;100.00
49945;BME280;35838;49.134;9.212;2023-04-25T05:57:49;99337.19;;;8.29;100.00
49945;BME280;35838;49.134;9.212;2023-04-25T05:59:23;99344.09;;;8.22;100.00
49945;BME280;35838;49.134;9.212;2023-04-25T06:00:56;99343.19;;;8.34;100.00
49945;BME280;35838;49.134;9.212;2023-04-25T06:02:30;99335.44;;;8.50;100.00
49945;BME280;35838;49.134;9.212;2023-04-25T06:04:03;99341.41;;;8.62;100.00
49945;BME280;35838;49.134;9.212;2023-04-25T06:05:37;99330.16;;;8.68;100.00
49945;BME280;35838;49.134;9.212;2023-04-25T06:07:13;99336.28;;;8.47;100.00
49945;BME280;35838;49.134;9.212;2023-04-25T06:08:47;99333.66;;;8.59;100.00
49945;BME280;35838;49.134;9.212;2023-04-25T06:10:21;99332.78;;;8.57;100.00
49945;BME280;35838;49.134;9.212;2023-04-25T06:11:54;99335.31;;;8.74;100.00
49945;BME280;35838;49.134;9.212;2023-04-25T06:13:28;99322.44;;;8.60;100.00
49945;BME280;35838;49.134;9.212;2023-04-25T06:15:02;99325.78;;;8.80;100.00
49945;BME280;35838;49.134;9.212;2023-04-25T06:16:35;99330.13;;;8.71;100.00
49945;BME280;35838;49.134;9.212;2023-04-25T06:18:09;99333.50;;;8.86;100.00
49945;BME280;35838;49.134;9.212;2023-04-25T06:19:43;99323.13;;;8.92;100.00
49945;BME280;35838;49.134;9.212;2023-04-25T06:21:16;99325.63;;;9.06;100.00
49945;BME280;35838;49.134;9.212;2023-04-25T06:22:53;99324.72;;;9.12;100.00
49945;BME280;35838;49.134;9.212;2023-04-25T06:24:26;99325.53;;;9.17;100.00
49945;BME280;35838;49.134;9.212;2023-04-25T06:26:00;99319.47;;;9.18;100.00
49945;BME280;35838;49.134;9.212;2023-04-25T06:27:34;99321.19;;;9.17;100.00
49945;BME280;35838;49.134;9.212;2023-04-25T06:29:07;99319.41;;;9.24;100.00
49945;BME280;35838;49.134;9.212;2023-04-25T06:30:41;99320.22;;;9.34;100.00
49945;BME280;35838;49.134;9.212;2023-04-25T06:32:14;99321.03;;;9.36;100.00
49945;BME280;35838;49.134;9.212;2023-04-25T06:33:48;99321.03;;;9.39;100.00
49945;BME280;35838;49.134;9.212;2023-04-25T06:35:25;99305.53;;;9.34;100.00
49945;BME280;35838;49.134;9.212;2023-04-25T06:36:58;99309.78;;;9.41;100.00
49945;BME280;35838;49.134;9.212;2023-04-25T06:38:34;99310.66;;;9.42;100.00
49945;BME280;35838;49.134;9.212;2023-04-25T06:40:08;99310.56;;;9.50;100.00
49945;BME280;35838;49.134;9.212;2023-04-25T06:41:39;99313.16;;;9.50;100.00
49945;BME280;35838;49.134;9.212;2023-04-25T06:43:13;99309.59;;;9.62;100.00
49945;BME280;35838;49.134;9.212;2023-04-25T06:44:47;99317.34;;;9.65;100.00
49945;BME280;35838;49.134;9.212;2023-04-25T06:46:20;99319.94;;;9.62;100.00
49945;BME280;35838;49.134;9.212;2023-04-25T06:47:54;99313.22;;;9.47;100.00
49945;BME280;35838;49.134;9.212;2023-04-25T06:49:27;99320.94;;;9.50;100.00
49945;BME280;35838;49.134;9.212;2023-04-25T06:51:01;99322.09;;;9.16;100.00
49945;BME280;35838;49.134;9.212;2023-04-25T06:52:34;99332.41;;;9.19;100.00
49945;BME280;35838;49.134;9.212;2023-04-25T06:54:11;99342.78;;;9.18;100.00
49945;BME280;35838;49.134;9.212;2023-04-25T06:55:44;99334.16;;;9.19;100.00
49945;BME280;35838;49.134;9.212;2023-04-25T06:57:18;99339.31;;;9.17;100.00
49945;BME280;35838;49.134;9.212;2023-04-25T06:58:51;99342.84;;;9.08;100.00
49945;BME280;35838;49.134;9.212;2023-04-25T07:00:25;99341.91;;;9.19;100.00
49945;BME280;35838;49.134;9.212;2023-04-25T07:01:59;99345.34;;;9.22;100.00
49945;BME280;35838;49.134;9.212;2023-04-25T07:03:34;99340.91;;;9.35;100.00
49945;BME280;35838;49.134;9.212;2023-04-25T07:05:08;99340.84;;;9.45;100.00
49945;BME280;35838;49.134;9.212;2023-04-25T07:06:41;99340.97;;;9.31;100.00
49945;BME280;35838;49.134;9.212;2023-04-25T07:08:15;99340.81;;;9.46;100.00
49945;BME280;35838;49.134;9.212;2023-04-25T07:09:51;99348.53;;;9.54;100.00
49945;BME280;35838;49.134;9.212;2023-04-25T07:11:25;99339.91;;;9.55;100.00
49945;BME280;35838;49.134;9.212;2023-04-25T07:12:59;99341.81;;;9.31;100.00
49945;BME280;35838;49.134;9.212;2023-04-25T07:14:32;99351.25;;;9.40;100.00
49945;BME280;35838;49.134;9.212;2023-04-25T07:16:06;99343.59;;;9.24;100.00
49945;BME280;35838;49.134;9.212;2023-04-25T07:17:40;99345.25;;;9.33;100.00
49945;BME280;35838;49.134;9.212;2023-04-25T07:19:13;99346.09;;;9.38;100.00
49945;BME280;35838;49.134;9.212;2023-04-25T07:20:47;99337.44;;;9.41;100.00
49945;BME280;35838;49.134;9.212;2023-04-25T07:22:20;99338.25;;;9.45;100.00
49945;BME280;35838;49.134;9.212;2023-04-25T07:23:54;99337.34;;;9.49;100.00
49945;BME280;35838;49.134;9.212;2023-04-25T07:25:31;99338.09;;;9.62;100.00
49945;BME280;35838;49.134;9.212;2023-04-25T07:27:05;99335.56;;;9.55;100.00
49945;BME280;35838;49.134;9.212;2023-04-25T07:28:39;99341.63;;;9.53;100.00
49945;BME280;35838;49.134;9.212;2023-04-25T07:30:14;99345.97;;;9.51;100.00
49945;BME280;35838;49.134;9.212;2023-04-25T07:31:47;99344.19;;;9.57;100.00
49945;BME280;35838;49.134;9.212;2023-04-25T07:33:21;99340.72;;;9.57;100.00
49945;BME280;35838;49.134;9.212;2023-04-25T07:34:54;99339.03;;;9.54;100.00
49945;BME280;35838;49.134;9.212;2023-04-25T07:36:28;99340.81;;;9.46;100.00
49945;BME280;35838;49.134;9.212;2023-04-25T07:38:02;99344.25;;;9.50;100.00
49945;BME280;35838;49.134;9.212;2023-04-25T07:39:37;99343.53;;;9.31;100.00
49945;BME280;35838;49.134;9.212;2023-04-25T07:41:13;99345.31;;;9.27;100.00
49945;BME280;35838;49.134;9.212;2023-04-25T07:42:46;99342.66;;;9.30;100.00
49945;BME280;35838;49.134;9.212;2023-04-25T07:44:20;99348.75;;;9.28;100.00
49945;BME280;35838;49.134;9.212;2023-04-25T07:45:54;99347.81;;;9.35;100.00
49945;BME280;35838;49.134;9.212;2023-04-25T07:47:27;99355.53;;;9.39;100.00
49945;BME280;35838;49.134;9.212;2023-04-25T07:49:01;99358.13;;;9.43;100.00
49945;BME280;35838;49.134;9.212;2023-04-25T07:50:35;99356.38;;;9.46;100.00
49945;BME280;35838;49.134;9.212;2023-04-25T07:52:08;99358.16;;;9.38;100.00
49945;BME280;35838;49.134;9.212;2023-04-25T07:53:42;99355.72;;;9.21;100.00
49945;BME280;35838;49.134;9.212;2023-04-25T07:55:15;99353.94;;;9.23;100.00
49945;BME280;35838;49.134;9.212;2023-04-25T07:58:25;99350.34;;;9.46;100.00
49945;BME280;35838;49.134;9.212;2023-04-25T07:59:58;99349.41;;;9.53;100.00
49945;BME280;35838;49.134;9.212;2023-04-25T08:01:33;99357.06;;;9.65;100.00
49945;BME280;35838;49.134;9.212;2023-04-25T08:03:09;99352.69;;;9.74;100.00
49945;BME280;35838;49.134;9.212;2023-04-25T08:04:42;99353.59;;;9.66;100.00
49945;BME280;35838;49.134;9.212;2023-04-25T08:06:17;99356.13;;;9.74;100.00
49945;BME280;35838;49.134;9.212;2023-04-25T08:07:51;99354.31;;;9.82;100.00
49945;BME280;35838;49.134;9.212;2023-04-25T08:09:24;99358.78;;;9.66;100.00
49945;BME280;35838;49.134;9.212;2023-04-25T08:10:58;99363.13;;;9.63;100.00
49945;BME280;35838;49.134;9.212;2023-04-25T08:12:31;99365.72;;;9.64;100.00
49945;BME280;35838;49.134;9.212;2023-04-25T08:14:08;99364.75;;;9.76;100.00
49945;BME280;35838;49.134;9.212;2023-04-25T08:15:42;99360.47;;;9.74;100.00
49945;BME280;35838;49.134;9.212;2023-04-25T08:17:15;99360.53;;;9.64;100.00
49945;BME280;35838;49.134;9.212;2023-04-25T08:18:49;99361.41;;;9.62;100.00
49945;BME280;35838;49.134;9.212;2023-04-25T08:20:23;99371.00;;;9.49;100.00
49945;BME280;35838;49.134;9.212;2023-04-25T08:21:57;99373.56;;;9.53;100.00
49945;BME280;35838;49.134;9.212;2023-04-25T08:23:31;99375.31;;;9.56;100.00
49945;BME280;35838;49.134;9.212;2023-04-25T08:25:04;99375.19;;;9.68;100.00
49945;BME280;35838;49.134;9.212;2023-04-25T08:26:38;99369.94;;;9.73;100.00
49945;BME280;35838;49.134;9.212;2023-04-25T08:28:12;99377.69;;;9.78;100.00
49945;BME280;35838;49.134;9.212;2023-04-25T08:29:48;99380.31;;;9.76;100.00
49945;BME280;35838;49.134;9.212;2023-04-25T08:31:22;99374.22;;;9.79;100.00
49945;BME280;35838;49.134;9.212;2023-04-25T08:32:55;99374.13;;;9.91;100.00
49945;BME280;35838;49.134;9.212;2023-04-25T08:34:29;99371.63;;;9.79;100.00
49945;BME280;35838;49.134;9.212;2023-04-25T08:36:03;99369.97;;;9.71;100.00
49945;BME280;35838;49.134;9.212;2023-04-25T08:37:36;99371.78;;;9.62;100.00
49945;BME280;35838;49.134;9.212;2023-04-25T08:39:10;99379.59;;;9.59;100.00
49945;BME280;35838;49.134;9.212;2023-04-25T08:40:43;99385.69;;;9.53;100.00
49945;BME280;35838;49.134;9.212;2023-04-25T08:42:17;99387.38;;;9.59;100.00
49945;BME280;35838;49.134;9.212;2023-04-25T08:43:51;99390.78;;;9.59;100.00
49945;BME280;35838;49.134;9.212;2023-04-25T08:45:29;99390.06;;;9.45;100.00
49945;BME280;35838;49.134;9.212;2023-04-25T08:47:05;99383.13;;;9.45;100.00
49945;BME280;35838;49.134;9.212;2023-04-25T08:48:38;99383.94;;;9.53;100.00
49945;BME280;35838;49.134;9.212;2023-04-25T08:50:13;99386.56;;;9.50;100.00
49945;BME280;35838;49.134;9.212;2023-04-25T08:51:47;99385.59;;;9.62;100.00
49945;BME280;35838;49.134;9.212;2023-04-25T08:53:25;99388.16;;;9.65;100.00
49945;BME280;35838;49.134;9.212;2023-04-25T08:54:59;99387.97;;;9.84;100.00
49945;BME280;35838;49.134;9.212;2023-04-25T08:56:34;99388.69;;;10.01;100.00
49945;BME280;35838;49.134;9.212;2023-04-25T08:58:09;99391.19;;;10.11;100.00
49945;BME280;35838;49.134;9.212;2023-04-25T08:59:44;99389.34;;;10.22;100.00
49945;BME280;35838;49.134;9.212;2023-04-25T09:01:22;99391.00;;;10.28;100.00
49945;BME280;35838;49.134;9.212;2023-04-25T09:02:55;99391.00;;;10.28;100.00
49945;BME280;35838;49.134;9.212;2023-04-25T09:04:30;99388.34;;;10.35;100.00
49945;BME280;35838;49.134;9.212;2023-04-25T09:06:03;99388.25;;;10.46;100.00
49945;BME280;35838;49.134;9.212;2023-04-25T09:07:37;99388.19;;;10.51;100.00
49945;BME280;35838;49.134;9.212;2023-04-25T09:09:11;99392.63;;;10.40;100.00
49945;BME280;35838;49.134;9.212;2023-04-25T09:10:45;99388.28;;;10.43;100.00
49945;BME280;35838;49.134;9.212;2023-04-25T09:12:19;99396.94;;;10.44;100.00
49945;BME280;35838;49.134;9.212;2023-04-25T09:13:54;99395.34;;;10.26;100.00
49945;BME280;35838;49.134;9.212;2023-04-25T09:15:49;99394.41;;;10.34;100.00
49945;BME280;35838;49.134;9.212;2023-04-25T09:17:25;99401.28;;;10.39;100.00
49945;BME280;35838;49.134;9.212;2023-04-25T09:18:59;99411.69;;;10.35;100.00
49945;BME280;35838;49.134;9.212;2023-04-25T09:20:33;99415.19;;;10.28;100.00
49945;BME280;35838;49.134;9.212;2023-04-25T09:22:14;99407.59;;;10.13;100.00
49945;BME280;35838;49.134;9.212;2023-04-25T09:23:48;99410.31;;;9.99;100.00
49945;BME280;35838;49.134;9.212;2023-04-25T09:25:23;99412.94;;;9.94;100.00
49945;BME280;35838;49.134;9.212;2023-04-25T09:26:57;99425.88;;;9.99;100.00
49945;BME280;35838;49.134;9.212;2023-04-25T09:28:32;99427.63;;;9.98;100.00
49945;BME280;35838;49.134;9.212;2023-04-25T09:30:06;99439.78;;;9.92;100.00
49945;BME280;35838;49.134;9.212;2023-04-25T09:31:40;99448.44;;;9.89;100.00
49945;BME280;35838;49.134;9.212;2023-04-25T09:33:16;99460.59;;;9.79;100.00
49945;BME280;35838;49.134;9.212;2023-04-25T09:34:51;99463.28;;;9.65;100.00
49945;BME280;35838;49.134;9.212;2023-04-25T09:36:26;99471.94;;;9.66;100.00
49945;BME280;35838;49.134;9.212;2023-04-25T09:37:59;99481.44;;;9.64;100.00
49945;BME280;35838;49.134;9.212;2023-04-25T09:39:33;99483.16;;;9.66;100.00
49945;BME280;35838;49.134;9.212;2023-04-25T09:41:07;99497.84;;;9.67;100.00
49945;BME280;35838;49.134;9.212;2023-04-25T09:42:41;99502.97;;;9.72;100.00
49945;BME280;35838;49.134;9.212;2023-04-25T09:44:15;99498.63;;;9.79;100.00
49945;BME280;35838;49.134;9.212;2023-04-25T09:45:57;99496.81;;;9.90;100.00
49945;BME280;35838;49.134;9.212;2023-04-25T09:47:31;99495.91;;;9.97;100.00
49945;BME280;35838;49.134;9.212;2023-04-25T09:49:08;99498.41;;;10.07;100.00
49945;BME280;35838;49.134;9.212;2023-04-25T09:50:42;99503.66;;;10.00;100.00
49945;BME280;35838;49.134;9.212;2023-04-25T09:52:16;99500.16;;;10.01;100.00
49945;BME280;35838;49.134;9.212;2023-04-25T09:53:50;99501.00;;;10.05;100.00
49945;BME280;35838;49.134;9.212;2023-04-25T09:55:24;99506.25;;;10.00;100.00
49945;BME280;35838;49.134;9.212;2023-04-25T09:56:58;99510.50;;;10.08;100.00
49945;BME280;35838;49.134;9.212;2023-04-25T09:58:36;99499.22;;;10.12;100.00
49945;BME280;35838;49.134;9.212;2023-04-25T10:00:10;99501.88;;;10.06;100.00
49945;BME280;35838;49.134;9.212;2023-04-25T10:01:44;99501.06;;;9.99;100.00
49945;BME280;35838;49.134;9.212;2023-04-25T10:03:18;99495.97;;;9.86;100.00
49945;BME280;35838;49.134;9.212;2023-04-25T10:04:56;99492.50;;;9.89;100.00
49945;BME280;35838;49.134;9.212;2023-04-25T10:06:29;99494.25;;;9.84;100.00
49945;BME280;35838;49.134;9.212;2023-04-25T10:08:04;99489.94;;;9.86;100.00
49945;BME280;35838;49.134;9.212;2023-04-25T10:09:39;99492.50;;;9.86;100.00
49945;BME280;35838;49.134;9.212;2023-04-25T10:11:13;99496.84;;;9.85;100.00
49945;BME280;35838;49.134;9.212;2023-04-25T10:12:47;99502.09;;;9.78;100.00
49945;BME280;35838;49.134;9.212;2023-04-25T10:14:21;99503.78;;;9.80;100.00
49945;BME280;35838;49.134;9.212;2023-04-25T10:15:55;99502.94;;;9.77;100.00